Time;durP1;ratioP1;P1;durP2;ratioP2;P2;SDS_P1;SDS_P2;PMS_P1;PMS_P2;Temp;Humidity;BMP_temperature;BMP_pressure;BME280_temperature;BME280_humidity;BME280_pressure;Samples;Min_cycle;Max_cycle;Signal;HPM_P1;HPM_P2
2023/03/03 00:00:11;;;;;;;;;;;;;;;12.39;40.21;99323.03;4525292;31;33122;-82
2023/03/03 00:02:39;;;;;;;;;;;;;;;12.32;40.38;99321.22;4511926;31;32739;-82
2023/03/03 00:05:06;;;;;;;;;;;;;;;12.27;40.64;99313.38;4509420;31;33415;-83
2023/03/03 00:07:33;;;;;;;;;;;;;;;12.39;40.45;99307.44;4526377;31;34729;-85
2023/03/03 00:10:01;;;;;;;;;;;;;;;12.56;40.07;99310.13;4524660;31;33293;-83
2023/03/03 00:12:29;;;;;;;;;;;;;;;12.53;40.12;99305.78;4523249;31;36507;-85
2023/03/03 00:14:56;;;;;;;;;;;;;;;12.58;40.01;99308.44;4526316;31;34457;-82
2023/03/03 00:17:25;;;;;;;;;;;;;;;12.47;39.96;99307.47;4526222;31;34276;-84
2023/03/03 00:19:52;;;;;;;;;;;;;;;12.54;40.01;99299.72;4525940;31;33909;-85
2023/03/03 00:22:29;;;;;;;;;;;;;;;12.60;39.66;99296.28;4525449;31;34185;-84
2023/03/03 00:25:00;;;;;;;;;;;;;;;12.68;39.48;99298.94;4526304;31;34644;-84
2023/03/03 00:27:29;;;;;;;;;;;;;;;12.59;39.47;99300.63;4509918;31;34138;-84
2023/03/03 00:29:57;;;;;;;;;;;;;;;12.60;39.59;99297.16;4521024;31;34026;-84
2023/03/03 00:32:26;;;;;;;;;;;;;;;12.47;39.78;99297.94;4521055;31;34233;-85
2023/03/03 00:34:54;;;;;;;;;;;;;;;12.43;39.97;99301.38;4524990;31;34375;-82
2023/03/03 00:37:32;;;;;;;;;;;;;;;12.44;39.88;99300.53;4514327;31;33925;-84
2023/03/03 00:40:12;;;;;;;;;;;;;;;12.30;40.25;99302.13;4513150;31;34036;-83
2023/03/03 00:42:39;;;;;;;;;;;;;;;12.44;39.92;99295.31;4514783;31;34938;-84
2023/03/03 00:45:19;;;;;;;;;;;;;;;12.36;40.14;99292.66;4509945;31;34243;-82
2023/03/03 00:47:46;;;;;;;;;;;;;;;12.50;39.55;99289.28;4515267;31;34735;-84
2023/03/03 00:50:34;;;;;;;;;;;;;;;12.59;39.20;99286.75;4515210;31;33347;-84
2023/03/03 00:53:03;;;;;;;;;;;;;;;12.34;39.65;99288.31;4514355;31;34191;-84
2023/03/03 00:55:31;;;;;;;;;;;;;;;12.47;39.32;99290.16;4514965;31;35128;-82
2023/03/03 00:57:58;;;;;;;;;;;;;;;12.28;39.72;99285.66;4510787;31;33973;-82
2023/03/03 01:00:26;;;;;;;;;;;;;;;12.26;40.03;99284.78;4504462;31;33201;-82
2023/03/03 01:02:54;;;;;;;;;;;;;;;12.24;40.11;99284.78;4499370;31;33956;-86
2023/03/03 01:05:22;;;;;;;;;;;;;;;12.31;39.97;99283.06;4515048;31;35896;-85
2023/03/03 01:07:49;;;;;;;;;;;;;;;12.20;39.99;99285.63;4514004;31;34828;-85
2023/03/03 01:10:17;;;;;;;;;;;;;;;11.56;41.50;99282.38;4513601;31;31936;-85
2023/03/03 01:12:44;;;;;;;;;;;;;;;11.89;40.97;99276.66;4514580;31;34891;-84
2023/03/03 01:15:12;;;;;;;;;;;;;;;11.96;40.92;99275.00;4514101;31;34395;-85
2023/03/03 01:17:40;;;;;;;;;;;;;;;12.20;40.33;99263.91;4498216;31;34756;-83
2023/03/03 01:20:10;;;;;;;;;;;;;;;12.18;40.44;99263.91;4487684;31;32795;-84
2023/03/03 01:22:37;;;;;;;;;;;;;;;12.18;40.57;99262.19;4485435;31;35127;-84
2023/03/03 01:25:04;;;;;;;;;;;;;;;11.89;41.75;99263.66;4502175;31;34104;-82
2023/03/03 01:27:33;;;;;;;;;;;;;;;11.88;41.81;99269.72;4503065;31;34471;-85
2023/03/03 01:30:00;;;;;;;;;;;;;;;12.11;41.60;99260.41;4500132;31;34115;-83
2023/03/03 01:32:28;;;;;;;;;;;;;;;12.12;41.77;99261.25;4513806;31;33789;-84
2023/03/03 01:34:56;;;;;;;;;;;;;;;11.95;42.24;99261.13;4514146;31;34410;-84
2023/03/03 01:37:23;;;;;;;;;;;;;;;12.29;41.68;99251.88;4515423;31;33793;-85
2023/03/03 01:39:52;;;;;;;;;;;;;;;12.32;41.67;99253.63;4502852;31;34191;-85
2023/03/03 01:42:19;;;;;;;;;;;;;;;12.18;42.12;99245.72;4500965;31;33902;-84
2023/03/03 01:44:47;;;;;;;;;;;;;;;12.39;41.75;99251.09;4512802;31;33711;-86
2023/03/03 01:47:21;;;;;;;;;;;;;;;12.60;41.38;99246.87;4515374;31;33777;-84
2023/03/03 01:49:49;;;;;;;;;;;;;;;12.16;42.16;99244.88;4513729;31;33749;-85
2023/03/03 01:52:20;;;;;;;;;;;;;;;11.90;43.00;99252.44;4509402;31;34266;-83
2023/03/03 01:54:49;;;;;;;;;;;;;;;12.16;42.62;99245.72;4501807;31;36808;-85
2023/03/03 01:57:18;;;;;;;;;;;;;;;12.34;42.40;99242.38;4514119;31;34251;-82
2023/03/03 01:59:46;;;;;;;;;;;;;;;12.43;42.32;99240.72;4514476;31;34553;-84
2023/03/03 02:02:13;;;;;;;;;;;;;;;12.58;42.13;99238.22;4505238;31;33795;-84
2023/03/03 02:04:41;;;;;;;;;;;;;;;12.55;42.11;99240.78;4511135;31;35076;-85
2023/03/03 02:07:10;;;;;;;;;;;;;;;12.74;41.72;99244.34;4514818;31;34525;-84
2023/03/03 02:09:45;;;;;;;;;;;;;;;12.62;42.14;99238.22;4515157;31;32969;-85
2023/03/03 02:12:14;;;;;;;;;;;;;;;12.78;41.87;99243.50;4512915;31;34324;-82
2023/03/03 02:14:41;;;;;;;;;;;;;;;12.92;41.59;99244.47;4513878;31;34485;-84
2023/03/03 02:17:08;;;;;;;;;;;;;;;12.91;41.74;99232.28;4514787;31;34578;-84
2023/03/03 02:19:51;;;;;;;;;;;;;;;12.96;41.71;99233.19;4514070;31;33334;-83
2023/03/03 02:22:20;;;;;;;;;;;;;;;12.95;41.85;99236.63;4514602;31;35001;-84
2023/03/03 02:24:52;;;;;;;;;;;;;;;13.10;41.60;99231.50;4496550;31;35277;-85
2023/03/03 02:27:19;;;;;;;;;;;;;;;13.14;41.61;99225.47;4497714;31;34828;-85
2023/03/03 02:29:47;;;;;;;;;;;;;;;13.23;41.40;99228.94;4513292;31;33452;-82
2023/03/03 02:32:14;;;;;;;;;;;;;;;13.13;41.54;99230.63;4513975;31;34317;-85
2023/03/03 02:34:45;;;;;;;;;;;;;;;13.31;41.26;99230.75;4513933;31;34173;-83
2023/03/03 02:37:13;;;;;;;;;;;;;;;13.47;40.95;99228.16;4514184;31;34946;-84
2023/03/03 02:39:40;;;;;;;;;;;;;;;13.43;41.05;99229.91;4515186;31;33140;-83
2023/03/03 02:42:07;;;;;;;;;;;;;;;13.56;40.87;99228.16;4512972;31;33732;-84
2023/03/03 02:44:35;;;;;;;;;;;;;;;13.57;40.86;99232.53;4514425;31;33959;-85
2023/03/03 02:47:03;;;;;;;;;;;;;;;13.57;40.84;99217.78;4514746;31;34721;-83
2023/03/03 02:49:31;;;;;;;;;;;;;;;13.55;40.93;99219.50;4515058;31;33477;-85
2023/03/03 02:51:58;;;;;;;;;;;;;;;13.61;41.01;99223.84;4505569;31;33941;-85
2023/03/03 02:54:27;;;;;;;;;;;;;;;13.63;40.99;99222.09;4502192;31;35155;-82
2023/03/03 02:56:54;;;;;;;;;;;;;;;13.60;41.02;99216.91;4509486;31;33956;-83
2023/03/03 02:59:21;;;;;;;;;;;;;;;13.60;40.99;99215.19;4513861;31;33485;-83
2023/03/03 03:01:49;;;;;;;;;;;;;;;13.65;41.10;99211.72;4499316;31;34312;-85
2023/03/03 03:04:17;;;;;;;;;;;;;;;13.71;41.09;99209.09;4510118;31;34365;-85
2023/03/03 03:06:45;;;;;;;;;;;;;;;13.72;40.99;99210.84;4504743;31;34659;-85
2023/03/03 03:09:13;;;;;;;;;;;;;;;13.77;40.95;99203.91;4513356;31;34113;-83
2023/03/03 03:11:41;;;;;;;;;;;;;;;13.81;40.91;99209.09;4501478;31;34037;-84
2023/03/03 03:14:09;;;;;;;;;;;;;;;13.73;41.21;99204.75;4514470;31;34355;-85
2023/03/03 03:16:37;;;;;;;;;;;;;;;13.84;41.04;99205.63;4509965;31;34163;-82
2023/03/03 03:19:04;;;;;;;;;;;;;;;13.73;41.14;99203.03;4514259;31;33343;-82
2023/03/03 03:21:32;;;;;;;;;;;;;;;13.82;41.14;99202.16;4509611;31;34895;-84
2023/03/03 03:24:01;;;;;;;;;;;;;;;13.90;40.98;99196.94;4514712;31;35060;-83
2023/03/03 03:26:29;;;;;;;;;;;;;;;13.85;41.13;99194.34;4505594;31;34237;-82
2023/03/03 03:28:58;;;;;;;;;;;;;;;13.85;41.19;99191.72;4499173;31;35463;-83
2023/03/03 03:31:25;;;;;;;;;;;;;;;13.98;40.95;99187.38;4512805;31;34947;-84
2023/03/03 03:33:52;;;;;;;;;;;;;;;13.81;41.37;99184.78;4514245;31;34119;-84
2023/03/03 03:36:20;;;;;;;;;;;;;;;14.09;40.77;99186.53;4512662;31;34101;-83
2023/03/03 03:38:52;;;;;;;;;;;;;;;14.12;40.64;99177.81;4508056;31;32842;-83
2023/03/03 03:41:19;;;;;;;;;;;;;;;14.15;40.45;99177.81;4497225;31;34241;-82
2023/03/03 03:43:46;;;;;;;;;;;;;;;14.16;40.54;99178.66;4514120;31;35108;-84
2023/03/03 03:46:14;;;;;;;;;;;;;;;14.18;40.52;99179.56;4510221;31;34813;-84
2023/03/03 03:48:41;;;;;;;;;;;;;;;14.23;40.34;99177.78;4490968;31;33481;-85
2023/03/03 03:51:10;;;;;;;;;;;;;;;13.75;41.42;99177.84;4506192;31;34309;-85
2023/03/03 03:53:38;;;;;;;;;;;;;;;13.68;41.70;99175.25;4513485;31;34111;-83
2023/03/03 03:56:05;;;;;;;;;;;;;;;13.95;41.18;99184.78;4511752;31;33835;-83
2023/03/03 03:58:32;;;;;;;;;;;;;;;14.10;40.90;99177.81;4512661;31;33521;-84
2023/03/03 04:01:04;;;;;;;;;;;;;;;14.07;40.96;99169.13;4512238;31;34280;-82
2023/03/03 04:03:32;;;;;;;;;;;;;;;14.24;40.60;99169.09;4508194;31;34211;-84
2023/03/03 04:05:59;;;;;;;;;;;;;;;14.32;40.39;99172.56;4497252;31;33745;-81
2023/03/03 04:08:27;;;;;;;;;;;;;;;14.42;40.14;99168.19;4505447;31;33167;-83
2023/03/03 04:10:55;;;;;;;;;;;;;;;14.44;40.07;99172.53;4500038;31;34210;-83
2023/03/03 04:13:23;;;;;;;;;;;;;;;14.32;40.22;99167.38;4512302;31;34448;-83
2023/03/03 04:15:50;;;;;;;;;;;;;;;14.17;40.59;99163.03;4516282;31;34898;-84
2023/03/03 04:18:18;;;;;;;;;;;;;;;14.27;40.50;99159.53;4515477;31;34156;-85
2023/03/03 04:20:45;;;;;;;;;;;;;;;14.41;40.39;99169.06;4515181;31;33889;-82
2023/03/03 04:23:13;;;;;;;;;;;;;;;14.43;40.37;99160.34;4510722;31;34688;-85
2023/03/03 04:25:41;;;;;;;;;;;;;;;14.48;40.31;99162.97;4514055;31;35020;-83
2023/03/03 04:28:11;;;;;;;;;;;;;;;14.40;40.41;99165.59;4515702;31;33733;-82
2023/03/03 04:30:39;;;;;;;;;;;;;;;14.35;40.58;99164.72;4516327;31;34203;-84
2023/03/03 04:33:06;;;;;;;;;;;;;;;14.42;40.41;99162.97;4515800;31;34163;-85
2023/03/03 04:35:35;;;;;;;;;;;;;;;14.24;40.79;99158.66;4509650;31;33864;-83
2023/03/03 04:38:04;;;;;;;;;;;;;;;14.45;40.46;99157.75;4513048;31;33911;-85
2023/03/03 04:40:32;;;;;;;;;;;;;;;14.21;41.02;99156.09;4513893;31;34882;-82
2023/03/03 04:43:00;;;;;;;;;;;;;;;14.46;40.70;99160.34;4515975;31;35167;-84
2023/03/03 04:45:27;;;;;;;;;;;;;;;14.43;40.65;99160.34;4504688;31;33851;-84
2023/03/03 04:47:55;;;;;;;;;;;;;;;14.50;40.56;99162.09;4514069;31;33115;-84
2023/03/03 04:50:22;;;;;;;;;;;;;;;14.52;40.47;99155.16;4507845;31;35221;-83
2023/03/03 04:52:49;;;;;;;;;;;;;;;14.49;40.58;99157.75;4515794;31;34374;-85
2023/03/03 04:55:17;;;;;;;;;;;;;;;14.44;40.72;99153.41;4514950;31;34340;-83
2023/03/03 04:57:45;;;;;;;;;;;;;;;14.54;40.54;99162.97;4507090;31;33136;-84
2023/03/03 05:00:12;;;;;;;;;;;;;;;14.56;40.46;99162.09;4500268;31;33505;-84
2023/03/03 05:02:40;;;;;;;;;;;;;;;14.54;40.46;99158.59;4511505;31;35322;-84
2023/03/03 05:05:09;;;;;;;;;;;;;;;14.50;40.69;99161.22;4506691;31;33775;-82
2023/03/03 05:07:36;;;;;;;;;;;;;;;14.34;40.95;99161.25;4514236;31;33326;-84
2023/03/03 05:10:04;;;;;;;;;;;;;;;14.58;40.62;99162.97;4513432;31;35148;-81
2023/03/03 05:12:31;;;;;;;;;;;;;;;14.68;40.32;99161.19;4514036;31;33962;-85
2023/03/03 05:14:58;;;;;;;;;;;;;;;14.74;40.14;99165.53;4515493;31;34008;-83
2023/03/03 05:17:26;;;;;;;;;;;;;;;14.71;40.25;99160.31;4515054;31;33545;-83
2023/03/03 05:19:56;;;;;;;;;;;;;;;14.73;40.23;99158.53;4515042;31;34506;-82
2023/03/03 05:22:23;;;;;;;;;;;;;;;14.83;39.99;99165.47;4514434;31;34056;-84
2023/03/03 05:24:51;;;;;;;;;;;;;;;14.89;39.81;99167.16;4512919;31;34254;-83
2023/03/03 05:27:18;;;;;;;;;;;;;;;14.59;40.42;99166.44;4510954;31;34332;-85
2023/03/03 05:29:46;;;;;;;;;;;;;;;14.75;40.06;99167.25;4514297;31;34277;-83
2023/03/03 05:32:13;;;;;;;;;;;;;;;14.73;40.16;99168.97;4511179;31;34885;-82
2023/03/03 05:34:40;;;;;;;;;;;;;;;14.73;40.24;99174.19;4514462;31;33648;-83
2023/03/03 05:37:09;;;;;;;;;;;;;;;14.90;39.92;99169.78;4515062;31;32937;-83
2023/03/03 05:39:36;;;;;;;;;;;;;;;14.81;39.91;99169.81;4514157;31;34980;-86
2023/03/03 05:42:04;;;;;;;;;;;;;;;14.71;40.06;99170.75;4514710;31;34505;-83
2023/03/03 05:44:31;;;;;;;;;;;;;;;14.75;40.07;99169.84;4515141;31;33923;-83
2023/03/03 05:46:58;;;;;;;;;;;;;;;14.44;40.71;99172.53;4514512;31;33464;-84
2023/03/03 05:49:26;;;;;;;;;;;;;;;14.67;40.38;99172.50;4513287;31;34069;-85
2023/03/03 05:51:53;;;;;;;;;;;;;;;14.71;40.31;99176.81;4513784;31;34436;-83
2023/03/03 05:54:21;;;;;;;;;;;;;;;14.84;40.13;99175.88;4514526;31;35028;-83
2023/03/03 05:56:48;;;;;;;;;;;;;;;14.88;40.11;99174.12;4513616;31;33492;-82
2023/03/03 05:59:16;;;;;;;;;;;;;;;14.98;39.91;99183.66;4511041;31;34942;-83
2023/03/03 06:01:44;;;;;;;;;;;;;;;14.99;39.91;99185.41;4514106;31;34370;-82
2023/03/03 06:04:11;;;;;;;;;;;;;;;14.87;40.24;99185.47;4508869;31;34335;-82
2023/03/03 06:06:38;;;;;;;;;;;;;;;14.52;41.03;99183.00;4512346;31;33882;-81
2023/03/03 06:09:06;;;;;;;;;;;;;;;14.62;40.86;99189.88;4503603;31;34449;-82
2023/03/03 06:11:33;;;;;;;;;;;;;;;14.78;40.66;99188.13;4514459;31;34342;-82
2023/03/03 06:14:00;;;;;;;;;;;;;;;14.97;40.25;99184.56;4510479;31;34439;-82
2023/03/03 06:16:28;;;;;;;;;;;;;;;15.07;40.06;99195.81;4513267;31;33534;-84
2023/03/03 06:18:55;;;;;;;;;;;;;;;14.94;40.31;99189.78;4514986;31;33980;-83
2023/03/03 06:21:22;;;;;;;;;;;;;;;14.94;40.50;99191.53;4512707;31;34501;-82
2023/03/03 06:23:50;;;;;;;;;;;;;;;15.02;40.39;99192.34;4513040;31;34704;-81
2023/03/03 06:26:17;;;;;;;;;;;;;;;15.17;40.20;99191.41;4513917;31;33426;-82
2023/03/03 06:28:44;;;;;;;;;;;;;;;15.13;40.21;99200.13;4515022;31;35060;-84
2023/03/03 06:31:11;;;;;;;;;;;;;;;15.02;40.54;99203.66;4511645;31;34110;-81
2023/03/03 06:33:41;;;;;;;;;;;;;;;14.92;40.79;99198.47;4512471;31;34233;-86
2023/03/03 06:36:08;;;;;;;;;;;;;;;15.00;40.76;99205.44;4498986;31;33189;-81
2023/03/03 06:38:35;;;;;;;;;;;;;;;15.09;40.72;99205.38;4513793;31;34965;-81
2023/03/03 06:41:06;;;;;;;;;;;;;;;14.74;41.02;99207.28;4515166;31;34335;-83
2023/03/03 06:43:33;;;;;;;;;;;;;;;13.58;43.42;99218.63;4513949;31;34786;-82
2023/03/03 06:46:01;;;;;;;;;;;;;;;13.74;43.23;99211.69;4513537;31;33677;-81
2023/03/03 06:48:29;;;;;;;;;;;;;;;13.87;42.66;99210.84;4512702;31;34943;-81
2023/03/03 06:50:57;;;;;;;;;;;;;;;13.95;41.73;99205.66;4514777;31;34316;-84
2023/03/03 06:53:24;;;;;;;;;;;;;;;14.24;41.24;99196.03;4500978;31;34173;-81
2023/03/03 06:55:52;;;;;;;;;;;;;;;13.83;42.05;99196.09;4499001;31;33581;-82
2023/03/03 06:58:19;;;;;;;;;;;;;;;13.44;42.44;99207.31;4500124;31;33805;-82
2023/03/03 07:00:56;;;;;;;;;;;;;;;12.91;43.88;99214.06;4508445;31;34036;-81
2023/03/03 07:03:42;;;;;;;;;;;;;;;12.39;44.73;99219.88;4512632;31;34275;-82
2023/03/03 07:06:16;;;;;;;;;;;;;;;12.99;43.82;99220.16;4515023;31;33395;-81
2023/03/03 07:08:43;;;;;;;;;;;;;;;13.24;43.30;99217.69;4506997;31;33702;-82
2023/03/03 07:11:11;;;;;;;;;;;;;;;13.65;42.11;99220.38;4512783;31;34048;-80
2023/03/03 07:13:39;;;;;;;;;;;;;;;13.12;43.03;99216.75;4511293;31;34210;-83
2023/03/03 07:16:09;;;;;;;;;;;;;;;13.13;43.11;99231.50;4509166;31;33289;-81
2023/03/03 07:18:39;;;;;;;;;;;;;;;13.55;42.33;99227.31;4508520;31;34173;-81
2023/03/03 07:21:16;;;;;;;;;;;;;;;13.45;42.27;99236.00;4513049;31;34387;-81
2023/03/03 07:23:44;;;;;;;;;;;;;;;13.78;41.76;99236.88;4510946;31;34451;-83
2023/03/03 07:26:12;;;;;;;;;;;;;;;13.68;41.65;99236.03;4512568;31;32746;-84
2023/03/03 07:28:40;;;;;;;;;;;;;;;13.95;41.33;99240.38;4508770;31;34172;-81
2023/03/03 07:31:27;;;;;;;;;;;;;;;14.13;41.11;99242.12;4513266;31;33436;-81
2023/03/03 07:33:55;;;;;;;;;;;;;;;14.29;40.91;99240.38;4511953;31;34032;-84
2023/03/03 07:36:26;;;;;;;;;;;;;;;14.31;41.01;99239.47;4511291;31;33533;-84
2023/03/03 07:38:54;;;;;;;;;;;;;;;14.24;41.00;99242.09;4509583;31;34227;-82
2023/03/03 07:41:25;;;;;;;;;;;;;;;13.74;42.20;99242.97;4501904;31;33986;-85
2023/03/03 07:43:56;;;;;;;;;;;;;;;13.96;42.05;99239.50;4511270;31;34019;-80
2023/03/03 07:46:26;;;;;;;;;;;;;;;14.25;41.75;99241.25;4513154;31;33340;-84
2023/03/03 07:48:54;;;;;;;;;;;;;;;14.66;40.96;99237.72;4512008;31;34086;-83
2023/03/03 07:51:24;;;;;;;;;;;;;;;14.77;40.36;99239.44;4513246;31;34248;-81
2023/03/03 07:53:52;;;;;;;;;;;;;;;14.78;40.36;99240.31;4510008;31;34723;-81
2023/03/03 07:56:24;;;;;;;;;;;;;;;15.12;39.75;99248.03;4505446;31;33214;-84
2023/03/03 07:58:52;;;;;;;;;;;;;;;14.94;40.10;99252.44;4511095;31;34101;-81
2023/03/03 08:01:39;;;;;;;;;;;;;;;15.23;39.55;99254.06;4514956;31;34517;-84
2023/03/03 08:04:15;;;;;;;;;;;;;;;15.21;39.42;99251.44;4513940;31;34686;-83
2023/03/03 08:06:52;;;;;;;;;;;;;;;15.25;39.70;99252.31;4514482;31;33380;-80
2023/03/03 08:09:19;;;;;;;;;;;;;;;15.26;39.60;99249.66;4513648;31;34138;-83
2023/03/03 08:12:04;;;;;;;;;;;;;;;15.17;40.02;99254.09;4515037;31;34336;-83
2023/03/03 08:14:33;;;;;;;;;;;;;;;15.07;40.06;99251.50;4514987;31;34750;-84
2023/03/03 08:17:00;;;;;;;;;;;;;;;14.99;40.19;99247.19;4514839;31;33215;-83
2023/03/03 08:19:29;;;;;;;;;;;;;;;15.14;40.03;99254.09;4513329;31;34220;-82
2023/03/03 08:22:08;;;;;;;;;;;;;;;15.19;40.05;99257.53;4512766;31;34056;-83
2023/03/03 08:24:35;;;;;;;;;;;;;;;15.06;40.13;99252.38;4499050;31;34407;-81
2023/03/03 08:27:04;;;;;;;;;;;;;;;15.29;39.73;99248.78;4500711;31;33207;-80
2023/03/03 08:29:32;;;;;;;;;;;;;;;14.80;40.71;99238.56;4514814;31;34059;-84
2023/03/03 08:31:59;;;;;;;;;;;;;;;14.96;40.60;99255.03;4513519;31;34167;-83
2023/03/03 08:34:27;;;;;;;;;;;;;;;15.05;40.40;99248.03;4513581;31;33866;-84
2023/03/03 08:36:57;;;;;;;;;;;;;;;14.47;41.79;99249.91;4512284;31;33105;-84
2023/03/03 08:39:24;;;;;;;;;;;;;;;14.75;41.24;99246.41;4513592;31;35045;-81
2023/03/03 08:41:51;;;;;;;;;;;;;;;14.55;41.88;99245.59;4514399;31;35362;-81
2023/03/03 08:44:19;;;;;;;;;;;;;;;14.49;42.21;99249.06;4514425;31;33558;-80
2023/03/03 08:46:46;;;;;;;;;;;;;;;14.65;41.82;99238.59;4514096;31;33299;-84
2023/03/03 08:49:14;;;;;;;;;;;;;;;14.10;42.93;99250.81;4511551;31;35156;-82
2023/03/03 08:51:41;;;;;;;;;;;;;;;14.43;42.36;99249.03;4506208;31;34362;-81
2023/03/03 08:54:08;;;;;;;;;;;;;;;14.82;41.70;99255.09;4514860;31;34936;-81
2023/03/03 08:56:36;;;;;;;;;;;;;;;14.21;42.86;99247.34;4514417;31;34400;-81
2023/03/03 08:59:03;;;;;;;;;;;;;;;13.91;43.77;99256.91;4512725;31;34215;-84
2023/03/03 09:01:30;;;;;;;;;;;;;;;13.90;44.31;99252.53;4514828;31;35217;-82
2023/03/03 09:03:58;;;;;;;;;;;;;;;13.79;44.39;99249.94;4505343;31;33773;-83
2023/03/03 09:06:25;;;;;;;;;;;;;;;13.66;45.29;99249.91;4513358;31;33114;-84
2023/03/03 09:08:53;;;;;;;;;;;;;;;14.39;43.66;99249.91;4506262;31;34711;-84
2023/03/03 09:11:25;;;;;;;;;;;;;;;15.09;41.39;99249.75;4515926;31;34135;-83
2023/03/03 09:13:58;;;;;;;;;;;;;;;14.78;42.36;99250.75;4514419;31;35030;-84
2023/03/03 09:16:26;;;;;;;;;;;;;;;14.82;42.39;99249.88;4500161;31;33483;-84
2023/03/03 09:18:53;;;;;;;;;;;;;;;15.09;41.77;99247.16;4515427;31;34259;-84
2023/03/03 09:21:21;;;;;;;;;;;;;;;14.15;43.43;99242.12;4515812;31;34504;-83
2023/03/03 09:23:49;;;;;;;;;;;;;;;14.78;42.62;99242.94;4504494;31;33838;-83
2023/03/03 09:26:46;;;;;;;;;;;;;;;14.62;43.25;99243.81;4506821;31;33247;-84
2023/03/03 09:29:13;;;;;;;;;;;;;;;14.65;42.88;99242.06;4502698;31;34832;-82
2023/03/03 09:31:50;;;;;;;;;;;;;;;14.81;42.72;99248.09;4515633;31;34426;-82
2023/03/03 09:34:22;;;;;;;;;;;;;;;13.06;46.54;99247.97;4514535;31;33837;-80
2023/03/03 09:36:52;;;;;;;;;;;;;;;14.32;43.88;99245.59;4515583;31;33027;-80
2023/03/03 09:39:24;;;;;;;;;;;;;;;13.68;45.13;99256.00;4511390;31;35096;-82
2023/03/03 09:42:00;;;;;;;;;;;;;;;14.27;43.76;99255.16;4513560;31;34907;-83
2023/03/03 09:44:41;;;;;;;;;;;;;;;13.37;45.19;99254.19;4515224;31;34186;-82
2023/03/03 09:47:08;;;;;;;;;;;;;;;13.74;44.66;99256.00;4509947;31;33060;-81
2023/03/03 09:49:56;;;;;;;;;;;;;;;14.17;43.79;99254.31;4515585;31;35091;-83
2023/03/03 09:52:29;;;;;;;;;;;;;;;14.33;43.17;99250.81;4513572;31;33874;-82
2023/03/03 09:55:03;;;;;;;;;;;;;;;15.14;41.60;99251.47;4512915;31;34121;-81
2023/03/03 09:57:42;;;;;;;;;;;;;;;13.88;44.42;99252.53;4505500;31;33507;-82
2023/03/03 10:00:18;;;;;;;;;;;;;;;14.79;42.58;99242.03;4503535;31;34233;-86
2023/03/03 10:02:48;;;;;;;;;;;;;;;14.02;42.84;99241.25;4514050;31;34112;-81
2023/03/03 10:05:37;;;;;;;;;;;;;;;14.26;42.86;99245.59;4513436;31;34903;-82
2023/03/03 10:08:17;;;;;;;;;;;;;;;14.86;41.31;99238.53;4505436;31;32759;-82
2023/03/03 10:10:50;;;;;;;;;;;;;;;15.30;39.82;99242.69;4514233;31;34250;-82
2023/03/03 10:13:30;;;;;;;;;;;;;;;14.90;40.47;99249.84;4512264;31;34015;-82
2023/03/03 10:16:12;;;;;;;;;;;;;;;14.98;41.14;99243.72;4515220;31;35022;-82
2023/03/03 10:18:51;;;;;;;;;;;;;;;15.26;40.00;99246.19;4514701;31;33498;-84
2023/03/03 10:21:22;;;;;;;;;;;;;;;14.21;42.67;99242.12;4513967;31;34005;-83
2023/03/03 10:23:53;;;;;;;;;;;;;;;14.42;40.92;99231.66;4512846;31;34389;-84
2023/03/03 10:26:43;;;;;;;;;;;;;;;14.76;40.43;99232.47;4513955;31;34689;-82
2023/03/03 10:29:21;;;;;;;;;;;;;;;14.59;41.22;99226.44;4515159;31;33239;-81
2023/03/03 10:31:57;;;;;;;;;;;;;;;14.35;41.89;99229.91;4514035;31;34107;-83
2023/03/03 10:34:28;;;;;;;;;;;;;;;14.23;42.22;99229.94;4513124;31;34356;-82
2023/03/03 10:37:04;;;;;;;;;;;;;;;13.70;43.44;99236.88;4514999;31;34144;-82
2023/03/03 10:39:46;;;;;;;;;;;;;;;14.75;41.31;99227.28;4515026;31;33009;-83
2023/03/03 10:42:15;;;;;;;;;;;;;;;13.85;42.53;99234.28;4513600;31;33039;-82
2023/03/03 10:45:02;;;;;;;;;;;;;;;14.99;40.23;99219.34;4514033;31;34546;-83
2023/03/03 10:47:32;;;;;;;;;;;;;;;15.87;38.46;99209.25;4515003;31;34421;-84
2023/03/03 10:50:18;;;;;;;;;;;;;;;15.41;39.42;99214.75;4513415;31;34035;-84
2023/03/03 10:52:46;;;;;;;;;;;;;;;14.63;40.87;99209.91;4513857;31;34883;-81
2023/03/03 10:55:34;;;;;;;;;;;;;;;15.22;39.57;99211.38;4513094;31;34439;-80
2023/03/03 10:58:11;;;;;;;;;;;;;;;15.77;38.70;99207.59;4510489;31;34869;-81
2023/03/03 11:00:45;;;;;;;;;;;;;;;15.94;38.29;99202.22;4511195;31;33496;-81
2023/03/03 11:03:38;;;;;;;;;;;;;;;13.91;43.39;99203.91;4509073;31;34997;-81
2023/03/03 11:06:17;;;;;;;;;;;;;;;14.04;42.98;99205.63;4498358;31;34282;-79
2023/03/03 11:08:48;;;;;;;;;;;;;;;14.09;43.32;99206.47;4501959;31;34805;-81
2023/03/03 11:11:15;;;;;;;;;;;;;;;14.44;42.80;99196.00;4510532;31;32254;-81
2023/03/03 11:13:46;;;;;;;;;;;;;;;13.95;43.76;99200.44;4514434;31;34268;-81
2023/03/03 11:16:14;;;;;;;;;;;;;;;14.89;41.67;99196.78;4514743;31;35390;-82
2023/03/03 11:18:53;;;;;;;;;;;;;;;15.19;40.48;99192.25;4514616;31;34044;-80
2023/03/03 11:21:31;;;;;;;;;;;;;;;14.60;42.20;99189.03;4513702;31;33374;-80
2023/03/03 11:24:11;;;;;;;;;;;;;;;15.26;40.60;99186.97;4514047;31;35061;-80
2023/03/03 11:26:38;;;;;;;;;;;;;;;15.85;39.53;99177.03;4509499;31;34500;-80
2023/03/03 11:29:12;;;;;;;;;;;;;;;15.90;39.68;99175.25;4514408;31;34921;-79
2023/03/03 11:31:42;;;;;;;;;;;;;;;16.14;38.81;99168.94;4513739;31;33566;-81
2023/03/03 11:34:28;;;;;;;;;;;;;;;15.37;40.49;99173.88;4514682;31;35105;-80
2023/03/03 11:37:15;;;;;;;;;;;;;;;16.11;39.13;99153.28;4514525;31;34227;-81
2023/03/03 11:39:42;;;;;;;;;;;;;;;16.58;38.48;99154.50;4514037;31;37045;-81
2023/03/03 11:42:27;;;;;;;;;;;;;;;16.11;39.12;99152.41;4502431;31;33436;-81
2023/03/03 11:44:55;;;;;;;;;;;;;;;16.03;39.17;99155.97;4484523;31;34592;-82
2023/03/03 11:47:24;;;;;;;;;;;;;;;16.41;38.22;99156.47;4507101;31;33748;-80
2023/03/03 11:49:55;;;;;;;;;;;;;;;16.81;37.11;99151.62;4497121;31;34885;-80
2023/03/03 11:52:41;;;;;;;;;;;;;;;16.90;37.11;99146.28;4498089;31;33682;-81
2023/03/03 11:55:19;;;;;;;;;;;;;;;15.73;39.12;99148.41;4498332;31;34610;-81
2023/03/03 11:57:52;;;;;;;;;;;;;;;15.29;39.49;99150.41;4496808;31;35072;-81
2023/03/03 12:00:20;;;;;;;;;;;;;;;16.05;38.33;99143.72;4497225;31;33895;-82
2023/03/03 12:02:54;;;;;;;;;;;;;;;16.19;37.60;99147.97;4498238;31;34036;-82
2023/03/03 12:05:45;;;;;;;;;;;;;;;16.59;36.22;99140.50;4496798;31;34237;-84
2023/03/03 12:08:16;;;;;;;;;;;;;;;16.63;35.52;99141.34;4490340;31;34151;-84
2023/03/03 12:10:43;;;;;;;;;;;;;;;16.17;37.38;99141.88;4483671;31;33626;-80
2023/03/03 12:13:30;;;;;;;;;;;;;;;16.58;36.77;99136.19;4497835;31;33393;-80
2023/03/03 12:16:10;;;;;;;;;;;;;;;16.48;36.65;99135.44;4498054;31;34197;-80
2023/03/03 12:19:00;;;;;;;;;;;;;;;17.07;35.46;99129.47;4497171;31;34177;-80
2023/03/03 12:21:28;;;;;;;;;;;;;;;16.83;35.72;99134.16;4476570;31;33161;-82
2023/03/03 12:24:00;;;;;;;;;;;;;;;16.41;36.00;99123.31;4513470;31;33311;-81
2023/03/03 12:26:36;;;;;;;;;;;;;;;16.53;35.89;99123.16;4512467;31;34063;-82
2023/03/03 12:29:03;;;;;;;;;;;;;;;15.18;38.74;99130.47;4513524;31;35130;-83
2023/03/03 12:31:34;;;;;;;;;;;;;;;15.40;38.37;99119.00;4513619;31;33740;-81
2023/03/03 12:34:04;;;;;;;;;;;;;;;15.24;38.88;99114.78;4512301;31;33110;-81
2023/03/03 12:36:34;;;;;;;;;;;;;;;15.70;38.31;99124.87;4514684;31;34132;-81
2023/03/03 12:39:13;;;;;;;;;;;;;;;15.86;37.13;99102.94;4516179;31;34417;-81
2023/03/03 12:42:00;;;;;;;;;;;;;;;16.14;36.91;99110.50;4516106;31;34869;-80
2023/03/03 12:44:36;;;;;;;;;;;;;;;15.31;38.08;99106.00;4514775;31;33202;-80
2023/03/03 12:47:06;;;;;;;;;;;;;;;16.04;37.55;99105.38;4515638;31;33606;-84
2023/03/03 12:49:38;;;;;;;;;;;;;;;16.60;37.02;99102.16;4515796;31;34099;-83
2023/03/03 12:52:35;;;;;;;;;;;;;;;17.05;36.09;99110.28;4515541;31;33639;-81
2023/03/03 12:55:09;;;;;;;;;;;;;;;17.48;34.79;99106.12;4486070;31;33393;-81
2023/03/03 12:57:55;;;;;;;;;;;;;;;16.24;36.46;99110.41;4514445;31;33699;-80
2023/03/03 13:00:41;;;;;;;;;;;;;;;17.14;34.77;99107.53;4515716;31;34297;-81
2023/03/03 13:03:09;;;;;;;;;;;;;;;17.53;32.88;99106.03;4514731;31;34059;-81
2023/03/03 13:05:48;;;;;;;;;;;;;;;17.36;33.37;99108.09;4515632;31;33547;-83